createdAt,value
2023-03-10T00:01:16.231Z,8.40
2023-03-10T00:28:00.151Z,6.73
2023-03-10T00:34:16.514Z,6.77
2023-03-10T00:40:21.911Z,7.33
2023-03-10T00:46:32.353Z,8.87
2023-03-10T00:52:47.655Z,9.40
2023-03-10T01:00:10.008Z,8.77
2023-03-10T01:45:58.505Z,7.13
2023-03-10T02:05:37.892Z,6.47
2023-03-10T02:36:40.348Z,5.00
2023-03-10T02:50:16.794Z,5.50
2023-03-10T03:15:00.085Z,4.87
2023-03-10T03:18:10.288Z,5.13
2023-03-10T03:25:08.342Z,4.90
2023-03-10T03:30:52.007Z,4.53
2023-03-10T03:33:24.171Z,4.47
2023-03-10T03:35:53.683Z,5.17
2023-03-10T03:38:23.606Z,5.60
2023-03-10T03:40:53.086Z,5.07
2023-03-10T03:43:29.520Z,5.20
2023-03-10T04:21:00.644Z,11.10
2023-03-10T04:24:13.931Z,5.00
2023-03-10T04:26:51.850Z,4.90
2023-03-10T04:30:02.691Z,5.47
2023-03-10T04:32:39.660Z,5.33
2023-03-10T04:35:22.890Z,5.13
2023-03-10T04:41:49.474Z,4.83
2023-03-10T04:44:30.504Z,4.43
2023-03-10T04:46:59.275Z,11.80
2023-03-10T04:49:27.345Z,4.87
2023-03-10T04:51:55.184Z,5.87
2023-03-10T04:54:24.204Z,5.60
2023-03-10T04:56:52.531Z,5.13
2023-03-10T04:59:22.196Z,6.60
2023-03-10T05:01:53.083Z,5.47
2023-03-10T05:04:21.060Z,5.50
2023-03-10T05:06:50.741Z,4.63
2023-03-10T05:09:18.852Z,4.80
2023-03-10T05:11:46.681Z,4.73
2023-03-10T05:14:14.689Z,4.70
2023-03-10T05:16:43.978Z,4.63
2023-03-10T05:19:11.781Z,6.87
2023-03-10T05:21:39.540Z,7.07
2023-03-10T05:24:07.844Z,5.07
2023-03-10T05:26:36.219Z,4.73
2023-03-10T05:29:05.382Z,11.23
2023-03-10T05:31:33.841Z,5.30
2023-03-10T05:34:02.960Z,5.20
2023-03-10T05:36:30.681Z,5.67
2023-03-10T05:38:58.371Z,8.10
2023-03-10T05:41:26.081Z,5.47
2023-03-10T05:43:54.004Z,6.20
2023-03-10T05:46:22.269Z,5.77
2023-03-10T05:48:50.150Z,6.37
2023-03-10T05:51:19.374Z,9.40
2023-03-10T05:53:49.347Z,242.70
2023-03-10T05:56:41.900Z,6.03
2023-03-10T05:59:09.771Z,6.13
2023-03-10T06:01:37.676Z,9.07
2023-03-10T06:04:07.898Z,7.00
2023-03-10T06:06:38.973Z,12.10
2023-03-10T06:09:07.355Z,7.43
2023-03-10T06:11:35.143Z,6.50
2023-03-10T06:14:02.860Z,6.30
2023-03-10T06:16:31.021Z,9.00
2023-03-10T06:19:02.031Z,9.50
2023-03-10T06:21:29.950Z,6.97
2023-03-10T06:23:59.563Z,6.77
2023-03-10T06:26:27.467Z,6.10
2023-03-10T06:28:57.775Z,6.13
2023-03-10T06:31:26.996Z,5.57
2023-03-10T06:33:59.736Z,34.10
2023-03-10T06:36:31.873Z,12.13
2023-03-10T06:39:01.742Z,5.90
2023-03-10T06:41:31.502Z,8.40
2023-03-10T06:44:02.867Z,4.90
2023-03-10T06:46:31.016Z,4.37
2023-03-10T06:48:59.003Z,4.57
2023-03-10T06:51:35.861Z,4.43
2023-03-10T06:54:06.554Z,4.20
2023-03-10T06:56:34.437Z,4.57
2023-03-10T06:59:02.472Z,5.03
2023-03-10T07:01:31.069Z,5.07
2023-03-10T07:04:01.080Z,4.83
2023-03-10T07:06:30.338Z,4.27
2023-03-10T07:08:59.011Z,3.00
2023-03-10T07:11:28.983Z,4.03
2023-03-10T07:13:57.035Z,3.10
2023-03-10T07:16:25.123Z,3.57
2023-03-10T07:18:53.199Z,4.50
2023-03-10T07:21:21.972Z,2.70
2023-03-10T07:23:50.964Z,2.90
2023-03-10T07:26:19.851Z,3.27
2023-03-10T07:29:25.223Z,3.50
2023-03-10T07:31:56.556Z,2.83
2023-03-10T07:34:24.713Z,2.73
2023-03-10T07:36:52.575Z,4.40
2023-03-10T07:42:48.778Z,3.23
2023-03-10T07:52:04.908Z,3.53
2023-03-10T07:57:56.935Z,11.83
2023-03-10T08:00:24.787Z,29.33
2023-03-10T08:02:52.512Z,98.73
2023-03-10T08:05:20.554Z,7.97
2023-03-10T08:07:50.102Z,104.97
2023-03-10T08:10:19.902Z,3.27
2023-03-10T08:12:47.693Z,10.70
2023-03-10T08:15:15.321Z,15.23
2023-03-10T08:17:43.625Z,23.40
2023-03-10T08:20:12.187Z,23.57
2023-03-10T08:22:40.239Z,150.27
2023-03-10T08:25:10.279Z,2.10
2023-03-10T08:27:38.590Z,99.30
2023-03-10T08:30:07.148Z,3.60
2023-03-10T08:32:34.824Z,8.60
2023-03-10T08:35:03.442Z,2.30
2023-03-10T08:37:31.534Z,3.07
2023-03-10T08:39:59.987Z,3.33
2023-03-10T08:42:29.206Z,60.30
2023-03-10T08:44:57.543Z,41.73
2023-03-10T08:47:29.254Z,2.03
2023-03-10T08:50:14.818Z,5.63
2023-03-10T08:52:43.651Z,10.10
2023-03-10T08:55:26.887Z,19.70
2023-03-10T08:57:57.826Z,11.70
2023-03-10T09:00:26.837Z,5.67
2023-03-10T09:02:56.382Z,5.00
2023-03-10T09:05:35.036Z,2.97
2023-03-10T09:08:05.138Z,4.80
2023-03-10T09:10:43.034Z,2.40
2023-03-10T09:13:14.619Z,2.40
2023-03-10T09:15:43.767Z,3.33
2023-03-10T09:18:14.722Z,1.83
2023-03-10T09:20:44.712Z,5.97
2023-03-10T09:23:18.314Z,2.30
2023-03-10T09:25:47.625Z,2.30
2023-03-10T09:28:19.740Z,2.63
2023-03-10T09:30:48.488Z,3.07
2023-03-10T09:33:17.812Z,3.63
2023-03-10T09:35:52.884Z,3.13
2023-03-10T09:38:31.582Z,6.10
2023-03-10T09:41:07.331Z,3.43
2023-03-10T09:43:41.464Z,3.67
2023-03-10T09:46:14.142Z,102.37
2023-03-10T09:48:45.603Z,10.93
2023-03-10T09:51:16.702Z,7.30
2023-03-10T09:54:03.358Z,26.20
2023-03-10T09:56:34.329Z,82.53
2023-03-10T09:59:09.031Z,253.73
2023-03-10T10:01:37.304Z,2.33
2023-03-10T10:04:11.285Z,26.60
2023-03-10T10:06:40.849Z,2.10
2023-03-10T10:09:14.294Z,2.70
2023-03-10T10:11:42.983Z,5.37
2023-03-10T10:14:28.289Z,4.43
2023-03-10T10:17:02.716Z,4.43
2023-03-10T10:19:31.403Z,7.17
2023-03-10T10:22:04.280Z,187.47
2023-03-10T10:24:33.384Z,19.10
2023-03-10T10:27:02.664Z,3.77
2023-03-10T10:29:36.861Z,2.70
2023-03-10T10:32:09.784Z,2.30
2023-03-10T10:34:39.951Z,1.90
2023-03-10T10:37:22.934Z,2.13
2023-03-10T10:39:53.013Z,5.23
2023-03-10T10:42:24.369Z,3.17
2023-03-10T10:44:55.478Z,4.87
2023-03-10T10:47:31.152Z,2.57
2023-03-10T10:50:10.901Z,5.00
2023-03-10T10:52:41.876Z,7.30
2023-03-10T10:55:23.724Z,1.80
2023-03-10T10:57:56.510Z,10.50
2023-03-10T11:00:27.947Z,6.37
2023-03-10T11:02:57.554Z,2.10
2023-03-10T11:05:29.825Z,3.33
2023-03-10T11:07:58.860Z,35.47
2023-03-10T11:10:30.219Z,4.20
2023-03-10T11:13:02.043Z,4.07
2023-03-10T11:15:34.195Z,5.43
2023-03-10T11:18:05.946Z,2.50
2023-03-10T11:20:48.459Z,13.57
2023-03-10T11:23:20.569Z,8.80
2023-03-10T11:25:52.168Z,4.77
2023-03-10T11:28:25.833Z,47.17
2023-03-10T11:31:01.964Z,2.00
2023-03-10T11:33:33.236Z,18.77
2023-03-10T11:36:06.272Z,3.43
2023-03-10T11:38:37.805Z,5.80
2023-03-10T11:41:07.888Z,2.67
2023-03-10T11:43:42.107Z,2.83
2023-03-10T11:46:17.916Z,28.60
2023-03-10T11:48:54.309Z,3.83
2023-03-10T11:51:28.842Z,2.70
2023-03-10T11:53:58.352Z,2.17
2023-03-10T11:56:26.972Z,13.67
2023-03-10T11:58:56.890Z,5.23
2023-03-10T12:01:28.965Z,2.40
2023-03-10T12:04:00.727Z,2.33
2023-03-10T12:06:34.869Z,2.00
2023-03-10T12:09:04.419Z,2.47
2023-03-10T12:11:33.541Z,1.90
2023-03-10T12:14:02.201Z,2.33
2023-03-10T12:16:34.093Z,3.17
2023-03-10T12:19:03.486Z,12.43
2023-03-10T12:21:34.554Z,3.60
2023-03-10T12:24:03.948Z,4.83
2023-03-10T12:26:51.851Z,11.70
2023-03-10T12:29:35.244Z,3.27
2023-03-10T12:32:05.671Z,177.80
2023-03-10T12:34:33.961Z,18.07
2023-03-10T12:37:06.961Z,2.70
2023-03-10T12:39:43.286Z,7.97
2023-03-10T12:42:36.284Z,3.20
2023-03-10T12:45:17.215Z,5.10
2023-03-10T12:47:51.584Z,5.60
2023-03-10T12:50:23.216Z,5.67
2023-03-10T12:52:54.516Z,4.23
2023-03-10T12:55:24.498Z,2.93
2023-03-10T12:57:58.384Z,2.27
2023-03-10T13:00:32.396Z,2.30
2023-03-10T13:03:03.402Z,48.10
2023-03-10T13:05:33.106Z,3.07
2023-03-10T13:08:04.323Z,5.17
2023-03-10T13:10:33.855Z,25.13
2023-03-10T13:13:03.864Z,4.20
2023-03-10T13:15:33.099Z,1.93
2023-03-10T13:18:18.364Z,13.47
2023-03-10T13:20:46.620Z,200.27
2023-03-10T13:23:21.625Z,3.90
2023-03-10T13:25:53.513Z,3.20
2023-03-10T13:28:22.941Z,10.13
2023-03-10T13:30:51.097Z,14.37
2023-03-10T13:33:26.139Z,3.20
2023-03-10T13:35:54.480Z,2.50
2023-03-10T13:38:24.842Z,2.43
2023-03-10T13:41:00.706Z,2.33
2023-03-10T13:43:35.223Z,2.70
2023-03-10T13:46:04.528Z,2.43
2023-03-10T13:48:35.569Z,7.37
2023-03-10T13:51:17.460Z,2.67
2023-03-10T13:53:47.410Z,17.97
2023-03-10T13:56:20.121Z,7.87
2023-03-10T13:58:49.947Z,3.17
2023-03-10T14:01:24.336Z,8.40
2023-03-10T14:03:55.878Z,11.00
2023-03-10T14:06:24.916Z,2.80
2023-03-10T14:08:53.632Z,4.40
2023-03-10T14:11:26.950Z,6.77
2023-03-10T14:13:54.871Z,2.83
2023-03-10T14:16:23.330Z,2.77
2023-03-10T14:18:52.117Z,2.67
2023-03-10T14:21:31.273Z,3.80
2023-03-10T14:24:04.709Z,2.83
2023-03-10T14:26:33.039Z,29.60
2023-03-10T14:29:02.725Z,13.80
2023-03-10T14:31:31.614Z,2.73
2023-03-10T14:34:00.161Z,12.53
2023-03-10T14:36:30.057Z,10.70
2023-03-10T14:38:57.781Z,3.10
2023-03-10T14:41:26.404Z,31.03
2023-03-10T14:43:54.747Z,33.50
2023-03-10T14:46:23.224Z,3.90
2023-03-10T14:48:51.502Z,10.93
2023-03-10T14:51:34.649Z,69.57
2023-03-10T14:54:05.179Z,7.00
2023-03-10T14:56:33.051Z,8.07
2023-03-10T14:59:02.854Z,4.13
2023-03-10T15:01:32.620Z,3.87
2023-03-10T15:04:01.325Z,3.80
2023-03-10T15:06:30.644Z,3.97
2023-03-10T15:08:58.837Z,2.80
2023-03-10T15:11:37.031Z,3.53
2023-03-10T15:14:06.035Z,3.63
2023-03-10T15:16:34.505Z,3.27
2023-03-10T15:19:04.082Z,2.70
2023-03-10T15:21:32.109Z,5.47
2023-03-10T15:24:00.374Z,3.73
2023-03-10T15:26:31.580Z,2.97
2023-03-10T15:29:00.124Z,2.73
2023-03-10T15:31:28.321Z,4.23
2023-03-10T15:33:57.763Z,3.90
2023-03-10T15:36:26.078Z,8.50
2023-03-10T15:38:54.061Z,2.63
2023-03-10T15:41:22.063Z,2.87
2023-03-10T15:43:52.193Z,6.20
2023-03-10T15:46:21.346Z,7.83
2023-03-10T15:48:49.724Z,3.50
2023-03-10T15:51:18.088Z,2.63
2023-03-10T15:53:46.756Z,19.57
2023-03-10T15:56:16.953Z,2.97
2023-03-10T15:58:46.256Z,13.50
2023-03-10T16:01:18.536Z,3.43
2023-03-10T16:03:47.579Z,5.23
2023-03-10T16:06:16.623Z,4.33
2023-03-10T16:08:44.943Z,2.77
2023-03-10T16:11:17.878Z,2.63
2023-03-10T16:13:47.712Z,2.63
2023-03-10T16:16:19.070Z,3.60
2023-03-10T16:18:47.636Z,3.40
2023-03-10T16:21:18.138Z,4.07
2023-03-10T16:23:48.189Z,3.63
2023-03-10T16:26:17.168Z,3.53
2023-03-10T16:28:47.820Z,3.10
2023-03-10T16:31:19.950Z,5.20
2023-03-10T16:33:48.468Z,6.33
2023-03-10T16:36:17.743Z,3.40
2023-03-10T16:38:46.139Z,8.40
2023-03-10T16:41:14.501Z,18.77
2023-03-10T16:43:42.351Z,11.33
2023-03-10T16:46:12.183Z,10.70
2023-03-10T16:48:43.192Z,24.60
2023-03-10T16:51:20.850Z,9.17
2023-03-10T16:53:49.163Z,8.53
2023-03-10T16:56:17.661Z,9.00
2023-03-10T16:58:45.728Z,10.30
2023-03-10T17:01:14.541Z,9.87
2023-03-10T17:03:44.874Z,19.00
2023-03-10T17:06:14.775Z,7.37
2023-03-10T17:08:43.310Z,3.60
2023-03-10T17:11:19.646Z,3.00
2023-03-10T17:13:48.101Z,3.77
2023-03-10T17:16:16.556Z,11.40
2023-03-10T17:18:46.126Z,134.30
2023-03-10T17:21:16.496Z,385.57
2023-03-10T17:23:47.736Z,3.83
2023-03-10T17:26:16.162Z,4.63
2023-03-10T17:28:45.426Z,3.90
2023-03-10T17:31:16.076Z,3.70
2023-03-10T17:33:46.195Z,3.40
2023-03-10T17:36:17.858Z,3.77
2023-03-10T17:38:46.364Z,3.43
2023-03-10T17:41:15.140Z,3.70
2023-03-10T17:43:44.343Z,3.70
2023-03-10T17:46:14.174Z,4.20
2023-03-10T17:48:42.132Z,5.13
2023-03-10T17:51:11.606Z,10.70
2023-03-10T17:53:40.605Z,3.70
2023-03-10T17:56:09.403Z,4.00
2023-03-10T17:58:38.090Z,3.80
2023-03-10T18:01:10.079Z,5.03
2023-03-10T18:03:38.571Z,4.63
2023-03-10T18:06:14.573Z,4.47
2023-03-10T18:08:44.162Z,4.47
2023-03-10T18:11:15.082Z,5.40
2023-03-10T18:13:43.310Z,4.57
2023-03-10T18:16:16.749Z,72.50
2023-03-10T18:18:44.793Z,66.80
2023-03-10T18:21:14.427Z,9.80
2023-03-10T18:23:44.531Z,5.00
2023-03-10T18:26:13.489Z,4.80
2023-03-10T18:28:42.025Z,4.30
2023-03-10T18:31:10.654Z,8.53
2023-03-10T18:33:38.902Z,5.10
2023-03-10T18:36:07.620Z,553.27
2023-03-10T18:38:36.123Z,24.70
2023-03-10T18:41:05.591Z,25.83
2023-03-10T18:43:35.050Z,26.20
2023-03-10T18:46:03.127Z,29.00
2023-03-10T18:48:31.434Z,5.60
2023-03-10T18:51:00.650Z,85.40
2023-03-10T18:53:31.453Z,159.97
2023-03-10T18:56:01.212Z,5.90
2023-03-10T18:58:33.173Z,391.60
2023-03-10T19:01:01.420Z,24.13
2023-03-10T19:03:30.720Z,108.13
2023-03-10T19:05:58.819Z,460.53
2023-03-10T19:08:27.461Z,7.23
2023-03-10T19:10:56.259Z,5.60
2023-03-10T19:13:24.903Z,179.93
2023-03-10T19:15:54.690Z,163.40
2023-03-10T19:18:23.048Z,37.50
2023-03-10T19:20:51.271Z,120.67
2023-03-10T19:23:19.544Z,146.93
2023-03-10T19:25:47.217Z,503.83
2023-03-10T19:28:15.049Z,44.23
2023-03-10T19:30:44.242Z,871.13
2023-03-10T19:33:24.165Z,279.83
2023-03-10T19:35:55.409Z,111.87
2023-03-10T19:38:24.493Z,334.07
2023-03-10T19:40:53.514Z,128.73
2023-03-10T19:43:21.620Z,138.03
2023-03-10T19:46:00.490Z,489.57
2023-03-10T19:48:33.023Z,5.53
2023-03-10T19:51:02.720Z,5.43
2023-03-10T19:53:41.732Z,76.27
2023-03-10T19:56:13.168Z,525.87
2023-03-10T19:58:42.874Z,281.43
2023-03-10T20:01:24.873Z,876.93
2023-03-10T20:04:11.384Z,401.83
2023-03-10T20:06:42.577Z,60.40
2023-03-10T20:09:15.971Z,191.63
2023-03-10T20:11:44.542Z,224.43
2023-03-10T20:14:14.131Z,152.03
2023-03-10T20:16:43.268Z,135.07
2023-03-10T20:19:15.843Z,5.63
2023-03-10T20:21:48.824Z,246.77
2023-03-10T20:24:29.038Z,314.57
2023-03-10T20:27:02.293Z,999.90
2023-03-10T20:29:30.499Z,25.43
2023-03-10T20:31:59.678Z,504.27
2023-03-10T20:34:29.854Z,141.50
2023-03-10T20:36:58.206Z,321.77
2023-03-10T20:39:26.064Z,205.47
2023-03-10T20:41:53.827Z,89.07
2023-03-10T20:44:26.459Z,225.33
2023-03-10T20:46:54.077Z,498.73
2023-03-10T20:49:23.518Z,235.00
2023-03-10T20:51:53.441Z,999.90
2023-03-10T20:54:21.967Z,734.80
2023-03-10T20:56:49.928Z,448.50
2023-03-10T20:59:22.620Z,389.93
2023-03-10T21:01:50.330Z,46.83
2023-03-10T21:04:20.131Z,144.40
2023-03-10T21:06:48.063Z,147.70
2023-03-10T21:09:18.319Z,117.00
2023-03-10T21:11:47.376Z,235.20
2023-03-10T21:14:19.539Z,345.00
2023-03-10T21:16:48.137Z,372.63
2023-03-10T21:19:16.847Z,6.50
2023-03-10T21:21:46.021Z,20.73
2023-03-10T21:24:15.592Z,947.13
2023-03-10T21:26:45.650Z,6.30
2023-03-10T21:29:13.592Z,58.80
2023-03-10T21:31:41.303Z,48.47
2023-03-10T21:34:09.307Z,309.40
2023-03-10T21:36:37.322Z,203.03
2023-03-10T21:39:05.333Z,11.47
2023-03-10T21:41:32.938Z,870.70
2023-03-10T21:44:03.577Z,41.43
2023-03-10T21:46:32.286Z,427.80
2023-03-10T21:49:01.598Z,537.20
2023-03-10T21:51:31.616Z,511.33
2023-03-10T21:54:01.478Z,935.07
2023-03-10T21:56:30.524Z,338.93
2023-03-10T21:58:59.318Z,958.10
2023-03-10T22:01:31.559Z,221.20
2023-03-10T22:03:59.404Z,916.67
2023-03-10T22:06:30.152Z,191.80
2023-03-10T22:08:58.075Z,556.80
2023-03-10T22:11:27.734Z,739.47
2023-03-10T22:14:00.129Z,181.73
2023-03-10T22:16:30.018Z,654.57
2023-03-10T22:18:58.526Z,906.43
2023-03-10T22:21:27.053Z,245.77
2023-03-10T22:23:58.253Z,236.77
2023-03-10T22:26:27.241Z,268.23
2023-03-10T22:28:55.140Z,607.83
2023-03-10T22:31:23.850Z,367.40
2023-03-10T22:33:52.843Z,607.47
2023-03-10T22:36:24.649Z,999.90
2023-03-10T22:38:54.146Z,122.33
2023-03-10T22:41:22.953Z,529.50
2023-03-10T22:43:53.233Z,478.70
2023-03-10T22:46:22.305Z,385.93
2023-03-10T22:48:51.669Z,23.37
2023-03-10T22:51:22.203Z,270.87
2023-03-10T22:53:52.063Z,423.00
2023-03-10T22:56:20.954Z,604.90
2023-03-10T22:58:48.570Z,169.93
2023-03-10T23:01:16.487Z,574.10
2023-03-10T23:03:45.472Z,760.73
2023-03-10T23:06:14.870Z,691.73
2023-03-10T23:08:47.110Z,900.33
2023-03-10T23:11:17.452Z,160.53
2023-03-10T23:13:56.264Z,147.60
2023-03-10T23:16:27.706Z,431.13
2023-03-10T23:18:56.502Z,999.90
2023-03-10T23:21:25.352Z,908.47
2023-03-10T23:24:17.383Z,999.90
2023-03-10T23:26:51.825Z,898.97
2023-03-10T23:29:37.547Z,999.90
2023-03-10T23:32:06.737Z,999.90
2023-03-10T23:34:58.086Z,999.90
2023-03-10T23:37:29.953Z,740.30
2023-03-10T23:40:15.829Z,999.90
2023-03-10T23:45:31.072Z,999.90
2023-03-10T23:48:03.567Z,982.13
2023-03-10T23:50:37.832Z,910.73
2023-03-10T23:53:17.881Z,813.07
2023-03-10T23:55:49.920Z,999.90
2023-03-10T23:58:28.471Z,986.83
